createdAt,value
2022-12-20T00:00:58.040Z,0.33
2022-12-20T00:03:29.592Z,0.32
2022-12-20T00:06:01.131Z,0.30
2022-12-20T00:08:34.915Z,0.31
2022-12-20T00:11:08.452Z,0.32
2022-12-20T00:13:39.055Z,0.36
2022-12-20T00:16:13.883Z,0.39
2022-12-20T00:18:46.132Z,0.45
2022-12-20T00:21:17.856Z,0.50
2022-12-20T00:23:49.415Z,0.58
2022-12-20T00:26:23.185Z,0.64
2022-12-20T00:28:54.687Z,0.69
2022-12-20T00:31:28.107Z,0.72
2022-12-20T00:34:01.248Z,0.73
2022-12-20T00:36:34.441Z,0.71
2022-12-20T00:39:06.645Z,0.68
2022-12-20T00:41:38.196Z,0.67
2022-12-20T00:44:09.738Z,0.67
2022-12-20T00:46:41.268Z,0.67
2022-12-20T00:49:13.035Z,0.69
2022-12-20T00:51:44.584Z,0.70
2022-12-20T00:54:16.074Z,0.71
2022-12-20T00:56:47.628Z,0.73
2022-12-20T00:59:19.708Z,0.73
2022-12-20T01:01:51.593Z,0.72
2022-12-20T01:04:23.622Z,0.70
2022-12-20T01:06:55.154Z,0.69
2022-12-20T01:09:26.647Z,0.69
2022-12-20T01:11:58.221Z,0.67
2022-12-20T01:14:29.733Z,0.67
2022-12-20T01:17:01.331Z,0.69
2022-12-20T01:19:33.000Z,0.72
2022-12-20T01:22:04.595Z,0.74
2022-12-20T01:24:36.139Z,0.81
2022-12-20T01:27:15.673Z,0.87
2022-12-20T01:29:47.885Z,0.91
2022-12-20T01:32:19.436Z,0.94
2022-12-20T01:34:51.139Z,0.99
2022-12-20T01:37:22.973Z,0.98
2022-12-20T01:39:54.644Z,0.98
2022-12-20T01:42:26.134Z,1.02
2022-12-20T01:45:02.453Z,1.05
2022-12-20T01:47:38.739Z,1.04
2022-12-20T01:50:12.234Z,1.02
2022-12-20T01:52:44.160Z,0.99
2022-12-20T01:55:21.158Z,0.98
2022-12-20T01:57:58.389Z,0.96
2022-12-20T02:00:30.593Z,0.95
2022-12-20T02:03:08.650Z,0.96
2022-12-20T02:05:43.296Z,0.94
2022-12-20T02:08:17.245Z,0.95
2022-12-20T02:11:01.998Z,0.95
2022-12-20T02:13:46.787Z,0.95
2022-12-20T02:16:27.520Z,0.98
2022-12-20T02:19:08.089Z,1.04
2022-12-20T02:21:42.047Z,1.06
2022-12-20T02:24:47.954Z,1.10
2022-12-20T02:27:44.314Z,1.17
2022-12-20T02:30:18.810Z,1.22
2022-12-20T02:33:00.298Z,1.24
2022-12-20T02:35:34.926Z,1.24
2022-12-20T02:38:20.964Z,1.28
2022-12-20T02:40:57.304Z,1.31
2022-12-20T02:43:50.471Z,1.30
2022-12-20T02:46:25.004Z,1.28
2022-12-20T02:49:02.269Z,1.25
2022-12-20T02:51:35.810Z,1.20
2022-12-20T02:54:06.275Z,1.13
2022-12-20T02:56:43.913Z,1.06
2022-12-20T02:59:21.322Z,0.98
2022-12-20T03:01:54.869Z,0.91
2022-12-20T03:04:29.197Z,0.84
2022-12-20T03:07:03.060Z,0.79
2022-12-20T03:09:37.634Z,0.72
2022-12-20T03:12:11.700Z,0.67
2022-12-20T03:14:43.557Z,0.66
2022-12-20T03:17:15.165Z,0.65
2022-12-20T03:19:46.825Z,0.65
2022-12-20T03:22:18.403Z,0.67
2022-12-20T03:24:50.148Z,0.71
2022-12-20T03:27:22.349Z,0.76
2022-12-20T03:29:53.860Z,0.80
2022-12-20T03:32:25.656Z,0.81
2022-12-20T03:34:57.333Z,0.83
2022-12-20T03:37:29.075Z,0.83
2022-12-20T03:40:00.732Z,0.80
2022-12-20T03:42:32.460Z,0.78
2022-12-20T03:45:04.299Z,0.75
2022-12-20T03:47:36.299Z,0.71
2022-12-20T03:50:10.119Z,0.69
2022-12-20T03:52:41.784Z,0.66
2022-12-20T03:55:13.902Z,0.62
2022-12-20T03:57:45.489Z,0.57
2022-12-20T04:00:20.580Z,0.53
2022-12-20T04:02:52.498Z,0.50
2022-12-20T04:05:24.443Z,0.47
2022-12-20T04:07:55.941Z,0.42
2022-12-20T04:10:27.431Z,0.42
2022-12-20T04:12:59.054Z,0.43
2022-12-20T04:15:30.689Z,0.44
2022-12-20T04:18:02.431Z,0.45
2022-12-20T04:20:34.066Z,0.49
2022-12-20T04:23:05.575Z,0.51
2022-12-20T04:25:37.205Z,0.54
2022-12-20T04:28:09.170Z,0.55
2022-12-20T04:30:40.714Z,0.56
2022-12-20T04:33:12.380Z,0.58
2022-12-20T04:35:44.022Z,0.58
2022-12-20T04:38:15.624Z,0.58
2022-12-20T04:40:49.134Z,0.57
2022-12-20T04:43:21.326Z,0.55
2022-12-20T04:45:56.226Z,0.53
2022-12-20T04:48:59.919Z,0.51
2022-12-20T04:51:22.013Z,0.46
2022-12-20T04:53:53.659Z,0.44
2022-12-20T04:56:27.678Z,0.41
2022-12-20T04:59:00.412Z,0.37
2022-12-20T05:01:32.112Z,0.34
2022-12-20T05:04:03.981Z,0.35
2022-12-20T05:06:35.585Z,0.35
2022-12-20T05:09:07.224Z,0.36
2022-12-20T05:11:38.754Z,0.39
2022-12-20T05:14:10.766Z,0.42
2022-12-20T05:17:01.750Z,0.48
2022-12-20T05:19:33.512Z,0.51
2022-12-20T05:22:19.100Z,0.53
2022-12-20T05:25:16.593Z,0.56
2022-12-20T05:27:48.471Z,0.59
2022-12-20T05:30:20.411Z,0.61
2022-12-20T05:32:52.094Z,0.58
2022-12-20T05:35:23.881Z,0.56
2022-12-20T05:37:55.637Z,0.54
2022-12-20T05:40:27.137Z,0.48
2022-12-20T05:42:58.944Z,0.42
2022-12-20T05:45:31.458Z,0.39
2022-12-20T05:48:03.353Z,0.35
2022-12-20T05:50:35.371Z,0.32
2022-12-20T05:53:11.589Z,0.30
2022-12-20T05:55:47.001Z,0.32
2022-12-20T05:58:18.953Z,0.32
2022-12-20T06:00:50.487Z,0.34
2022-12-20T06:03:22.319Z,0.37
2022-12-20T06:05:54.230Z,0.39
2022-12-20T06:08:25.994Z,0.44
2022-12-20T06:10:57.771Z,0.49
2022-12-20T06:13:29.381Z,0.52
2022-12-20T06:16:01.530Z,0.54
2022-12-20T06:18:33.115Z,0.55
2022-12-20T06:21:05.021Z,0.54
2022-12-20T06:23:37.042Z,0.51
2022-12-20T06:26:09.687Z,0.48
2022-12-20T06:28:42.974Z,0.47
2022-12-20T06:31:14.682Z,0.44
2022-12-20T06:33:47.306Z,0.40
2022-12-20T06:36:18.966Z,0.38
2022-12-20T06:38:50.732Z,0.34
2022-12-20T06:41:22.243Z,0.28
2022-12-20T06:43:53.758Z,0.25
2022-12-20T06:46:25.254Z,0.22
2022-12-20T06:48:58.608Z,0.24
2022-12-20T06:51:30.167Z,0.27
2022-12-20T06:54:01.738Z,0.29
2022-12-20T06:56:39.227Z,0.30
2022-12-20T06:59:12.924Z,0.35
2022-12-20T07:01:44.849Z,0.39
2022-12-20T07:04:16.626Z,0.44
2022-12-20T07:06:48.303Z,0.47
2022-12-20T07:09:20.737Z,0.50
2022-12-20T07:24:39.920Z,1.23
2022-12-20T07:27:20.006Z,1.38
2022-12-20T07:29:51.947Z,1.43
2022-12-20T07:32:23.951Z,1.42
2022-12-20T07:34:58.228Z,1.42
2022-12-20T07:37:31.192Z,1.45
2022-12-20T07:40:03.096Z,1.45
2022-12-20T07:42:39.064Z,1.44
2022-12-20T07:45:13.703Z,1.43
2022-12-20T07:47:45.397Z,1.42
2022-12-20T07:50:17.546Z,1.42
2022-12-20T07:52:51.021Z,1.42
2022-12-20T07:55:23.785Z,1.44
2022-12-20T07:58:19.047Z,1.45
2022-12-20T08:00:53.372Z,1.48
2022-12-20T08:03:29.592Z,1.53
2022-12-20T08:06:05.035Z,1.60
2022-12-20T08:08:39.537Z,1.65
2022-12-20T08:11:12.614Z,1.72
2022-12-20T08:13:46.755Z,1.82
2022-12-20T08:16:20.401Z,1.87
2022-12-20T08:18:52.403Z,2.01
2022-12-20T08:21:24.137Z,2.11
2022-12-20T08:23:56.744Z,2.21
2022-12-20T08:26:28.411Z,2.34
2022-12-20T08:29:00.218Z,2.56
2022-12-20T08:31:32.134Z,2.63
2022-12-20T08:34:03.831Z,2.58
2022-12-20T08:36:35.440Z,2.57
2022-12-20T08:39:07.854Z,2.50
2022-12-20T08:41:39.812Z,2.48
2022-12-20T08:44:11.682Z,2.46
2022-12-20T08:46:43.421Z,2.53
2022-12-20T08:49:15.311Z,2.64
2022-12-20T08:51:47.004Z,2.80
2022-12-20T08:54:18.808Z,3.03
2022-12-20T08:56:50.551Z,3.21
2022-12-20T08:59:22.421Z,3.41
2022-12-20T09:01:54.767Z,3.56
2022-12-20T09:04:26.600Z,3.61
2022-12-20T09:06:58.354Z,3.66
2022-12-20T09:09:31.595Z,3.81
2022-12-20T09:12:03.307Z,3.92
2022-12-20T09:14:35.001Z,3.93
2022-12-20T09:17:07.131Z,3.90
2022-12-20T09:19:39.099Z,3.89
2022-12-20T09:22:10.775Z,3.92
2022-12-20T09:24:42.619Z,3.90
2022-12-20T09:27:14.213Z,3.86
2022-12-20T09:38:48.724Z,3.64
2022-12-20T09:41:30.525Z,3.57
2022-12-20T09:44:08.141Z,3.49
2022-12-20T09:46:41.920Z,3.44
2022-12-20T09:49:18.892Z,3.42
2022-12-20T09:52:08.162Z,3.39
2022-12-20T09:55:02.639Z,3.42
2022-12-20T09:58:05.759Z,3.54
2022-12-20T10:00:50.152Z,3.64
2022-12-20T10:03:32.525Z,3.69
2022-12-20T10:06:12.388Z,3.77
2022-12-20T10:08:56.972Z,3.83
2022-12-20T10:11:54.991Z,3.90
2022-12-20T10:15:02.027Z,4.07
2022-12-20T10:17:45.387Z,4.22
2022-12-20T10:20:32.315Z,4.38
2022-12-20T10:23:10.621Z,4.53
2022-12-20T10:25:43.173Z,4.59
2022-12-20T10:28:19.504Z,4.60
2022-12-20T10:30:51.396Z,4.60
2022-12-20T10:33:28.535Z,4.61
2022-12-20T10:36:21.340Z,4.60
2022-12-20T10:38:55.650Z,4.50
2022-12-20T10:41:28.933Z,4.42
2022-12-20T10:44:03.577Z,4.37
2022-12-20T10:46:42.560Z,4.29
2022-12-20T10:49:41.012Z,4.21
2022-12-20T10:52:17.543Z,4.11
2022-12-20T10:54:49.809Z,4.03
2022-12-20T10:57:27.960Z,3.96
2022-12-20T11:00:02.344Z,3.92
2022-12-20T11:03:26.851Z,3.83
2022-12-20T11:06:20.345Z,3.69
2022-12-20T11:08:57.029Z,3.65
2022-12-20T11:11:32.747Z,3.61
2022-12-20T11:14:21.428Z,3.57
2022-12-20T11:16:55.110Z,3.49
2022-12-20T11:19:41.701Z,3.47
2022-12-20T11:22:23.723Z,3.45
2022-12-20T11:25:07.858Z,3.44
2022-12-20T11:27:49.539Z,3.44
2022-12-20T11:30:24.392Z,3.50
2022-12-20T11:33:21.503Z,3.58
2022-12-20T11:36:02.691Z,3.72
2022-12-20T11:38:45.800Z,3.81
2022-12-20T11:41:31.560Z,3.92
2022-12-20T11:44:25.283Z,3.97
2022-12-20T11:47:30.346Z,4.05
2022-12-20T11:50:18.919Z,4.16
2022-12-20T11:52:56.568Z,4.22
2022-12-20T11:55:33.692Z,4.26
2022-12-20T11:58:20.707Z,4.31
2022-12-20T12:00:58.858Z,4.37
2022-12-20T12:03:37.472Z,4.38
2022-12-20T12:06:13.586Z,4.35
2022-12-20T12:08:51.803Z,4.32
2022-12-20T12:14:32.594Z,4.24
2022-12-20T12:17:14.442Z,4.22
2022-12-20T12:19:50.965Z,4.21
2022-12-20T12:22:31.672Z,4.23
2022-12-20T12:25:11.353Z,4.23
2022-12-20T12:27:43.414Z,4.20
2022-12-20T12:30:19.394Z,4.18
2022-12-20T12:32:57.089Z,4.14
2022-12-20T12:36:00.350Z,4.00
2022-12-20T12:39:02.813Z,3.90
2022-12-20T12:42:10.881Z,3.77
2022-12-20T12:44:50.826Z,3.70
2022-12-20T12:47:31.810Z,3.66
2022-12-20T12:50:06.594Z,3.68
2022-12-20T12:52:47.932Z,3.70
2022-12-20T12:55:50.510Z,3.76
2022-12-20T12:58:38.153Z,3.72
2022-12-20T13:01:14.311Z,3.74
2022-12-20T13:04:08.581Z,3.77
2022-12-20T13:06:58.162Z,3.79
2022-12-20T13:09:44.516Z,3.73
2022-12-20T13:12:58.782Z,3.73
2022-12-20T13:16:20.147Z,3.69
2022-12-20T13:19:14.647Z,3.61
2022-12-20T13:21:48.844Z,3.58
2022-12-20T13:24:54.994Z,3.54
2022-12-20T13:27:40.434Z,3.51
2022-12-20T13:30:29.514Z,3.52
2022-12-20T13:33:24.153Z,3.50
2022-12-20T13:36:29.075Z,3.46
2022-12-20T13:39:02.858Z,3.38
2022-12-20T13:41:46.332Z,3.31
2022-12-20T13:44:46.642Z,3.27
2022-12-20T13:47:47.624Z,3.21
2022-12-20T13:50:38.657Z,3.19
2022-12-20T13:53:20.663Z,3.14
2022-12-20T13:55:52.666Z,3.14
2022-12-20T13:58:29.664Z,3.13
2022-12-20T14:01:07.997Z,3.12
2022-12-20T14:03:49.112Z,3.14
2022-12-20T14:06:26.994Z,3.17
2022-12-20T14:08:59.165Z,3.16
2022-12-20T14:11:31.286Z,3.16
2022-12-20T14:14:05.756Z,3.15
2022-12-20T14:16:39.417Z,3.10
2022-12-20T14:19:17.327Z,3.06
2022-12-20T14:21:52.875Z,3.03
2022-12-20T14:24:25.404Z,2.97
2022-12-20T14:26:57.637Z,2.91
2022-12-20T14:29:33.662Z,2.87
2022-12-20T14:32:07.230Z,2.79
2022-12-20T14:34:41.900Z,2.74
2022-12-20T14:37:42.524Z,2.69
2022-12-20T14:40:22.178Z,2.65
2022-12-20T14:42:54.033Z,2.61
2022-12-20T14:45:28.618Z,2.57
2022-12-20T14:48:04.606Z,2.55
2022-12-20T14:50:37.974Z,2.56
2022-12-20T14:53:20.188Z,2.58
2022-12-20T14:55:52.821Z,2.58
2022-12-20T14:58:30.223Z,2.62
2022-12-20T15:01:04.939Z,2.62
2022-12-20T15:03:38.139Z,2.63
2022-12-20T15:06:38.919Z,2.65
2022-12-20T15:09:10.723Z,2.64
2022-12-20T15:11:45.835Z,2.64
2022-12-20T15:14:28.604Z,2.63
2022-12-20T15:17:00.348Z,2.58
2022-12-20T15:19:36.226Z,2.54
2022-12-20T15:22:16.893Z,2.52
2022-12-20T15:24:48.721Z,2.49
2022-12-20T15:27:20.470Z,2.46
2022-12-20T15:29:53.343Z,2.45
2022-12-20T15:32:30.908Z,2.45
2022-12-20T15:35:04.041Z,2.44
2022-12-20T15:37:35.845Z,2.42
2022-12-20T15:40:14.468Z,2.40
2022-12-20T15:42:46.368Z,2.39
2022-12-20T15:45:18.684Z,2.39
2022-12-20T15:47:50.472Z,2.42
2022-12-20T15:50:23.294Z,2.45
2022-12-20T15:52:55.591Z,2.46
2022-12-20T15:55:27.487Z,2.49
2022-12-20T15:57:59.284Z,2.50
2022-12-20T16:00:31.091Z,2.46
2022-12-20T16:03:03.683Z,2.46
2022-12-20T16:05:36.821Z,2.43
2022-12-20T16:08:09.360Z,2.42
2022-12-20T16:10:41.290Z,2.37
2022-12-20T16:13:21.024Z,2.33
2022-12-20T16:15:53.957Z,2.29
2022-12-20T16:18:30.066Z,2.24
2022-12-20T16:21:07.023Z,2.20
2022-12-20T16:23:37.197Z,2.15
2022-12-20T16:26:12.371Z,2.08
2022-12-20T16:28:44.949Z,2.01
2022-12-20T16:31:24.726Z,1.96
2022-12-20T16:33:57.020Z,1.93
2022-12-20T16:36:29.767Z,1.90
2022-12-20T16:39:02.102Z,1.93
2022-12-20T16:41:36.007Z,1.97
2022-12-20T16:44:13.153Z,2.02
2022-12-20T16:46:45.668Z,2.03
2022-12-20T16:49:20.437Z,2.06
2022-12-20T16:51:52.819Z,2.11
2022-12-20T16:54:25.291Z,2.15
2022-12-20T16:56:57.537Z,2.15
2022-12-20T16:59:29.357Z,2.15
2022-12-20T17:02:02.432Z,2.14
2022-12-20T17:04:33.316Z,2.14
2022-12-20T17:07:05.124Z,2.11
2022-12-20T17:09:37.154Z,2.05
2022-12-20T17:12:16.441Z,2.02
2022-12-20T17:14:48.929Z,2.00
2022-12-20T17:17:20.781Z,2.01
2022-12-20T17:19:52.478Z,2.00
2022-12-20T17:25:23.807Z,1.93
2022-12-20T17:27:57.324Z,1.92
2022-12-20T17:30:29.161Z,1.89
2022-12-20T17:33:01.135Z,1.82
2022-12-20T17:35:34.487Z,1.82
2022-12-20T17:38:07.640Z,1.84
2022-12-20T17:40:39.482Z,1.83
2022-12-20T17:43:14.561Z,1.83
2022-12-20T17:45:47.770Z,1.87
2022-12-20T17:48:19.524Z,1.91
2022-12-20T17:50:51.327Z,1.95
2022-12-20T17:53:23.046Z,2.02
2022-12-20T17:55:55.507Z,2.06
2022-12-20T17:58:27.414Z,2.09
2022-12-20T18:01:00.283Z,2.12
2022-12-20T18:04:02.066Z,2.15
2022-12-20T18:06:24.843Z,2.10
2022-12-20T18:08:58.109Z,2.09
2022-12-20T18:11:30.663Z,2.06
2022-12-20T18:14:03.571Z,2.06
2022-12-20T18:16:36.067Z,2.02
2022-12-20T18:19:09.955Z,1.96
2022-12-20T18:21:41.917Z,1.93
2022-12-20T18:24:15.969Z,1.89
2022-12-20T18:26:47.937Z,1.86
2022-12-20T18:29:19.788Z,1.84
2022-12-20T18:31:51.668Z,1.80
2022-12-20T18:34:24.364Z,1.78
2022-12-20T18:36:56.178Z,1.76
2022-12-20T18:39:28.035Z,1.78
2022-12-20T18:41:59.870Z,1.80
2022-12-20T18:44:39.823Z,1.81
2022-12-20T18:47:14.947Z,1.83
2022-12-20T18:49:46.878Z,1.89
2022-12-20T18:52:18.869Z,1.92
2022-12-20T18:54:50.628Z,1.96
2022-12-20T18:57:22.417Z,1.96
2022-12-20T18:59:55.071Z,1.97
2022-12-20T19:02:27.115Z,1.97
2022-12-20T19:04:59.130Z,1.94
2022-12-20T19:07:30.987Z,1.88
2022-12-20T19:10:02.829Z,1.83
2022-12-20T19:12:35.556Z,1.77
2022-12-20T19:15:09.340Z,1.70
2022-12-20T19:17:41.850Z,1.65
2022-12-20T19:20:14.263Z,1.61
2022-12-20T19:22:46.120Z,1.58
2022-12-20T19:25:18.919Z,1.53
2022-12-20T19:27:50.629Z,1.47
2022-12-20T19:30:22.680Z,1.40
2022-12-20T19:32:55.189Z,1.35
2022-12-20T19:35:53.987Z,1.29
2022-12-20T19:38:20.079Z,1.25
2022-12-20T19:40:55.321Z,1.22
2022-12-20T19:43:27.122Z,1.21
2022-12-20T19:46:00.464Z,1.21
2022-12-20T19:48:34.652Z,1.26
2022-12-20T19:51:10.034Z,1.26
2022-12-20T19:53:43.591Z,1.27
2022-12-20T19:56:17.961Z,1.29
2022-12-20T19:58:50.229Z,1.32
2022-12-20T20:01:25.856Z,1.32
2022-12-20T20:04:02.241Z,1.31
2022-12-20T20:06:34.317Z,1.31
2022-12-20T20:09:06.214Z,1.30
2022-12-20T20:11:38.043Z,1.30
2022-12-20T20:14:10.345Z,1.28
2022-12-20T20:16:42.351Z,1.24
2022-12-20T20:19:14.277Z,1.19
2022-12-20T20:21:46.318Z,1.17
2022-12-20T20:24:18.741Z,1.16
2022-12-20T20:26:50.601Z,1.13
2022-12-20T20:29:22.418Z,1.11
2022-12-20T20:31:55.307Z,1.10
2022-12-20T20:34:27.089Z,1.12
2022-12-20T20:36:58.802Z,1.14
2022-12-20T20:39:30.487Z,1.17
2022-12-20T20:42:02.267Z,1.22
2022-12-20T20:44:34.047Z,1.29
2022-12-20T20:47:06.565Z,1.34
2022-12-20T20:49:38.317Z,1.39
2022-12-20T20:52:11.230Z,1.44
2022-12-20T20:54:43.294Z,1.45
2022-12-20T20:57:15.231Z,1.44
2022-12-20T20:59:46.965Z,1.40
2022-12-20T21:02:20.939Z,1.36
2022-12-20T21:05:47.150Z,1.33
2022-12-20T21:07:46.205Z,1.29
2022-12-20T21:10:18.394Z,1.27
2022-12-20T21:12:50.451Z,1.24
2022-12-20T21:15:24.098Z,1.20
2022-12-20T21:17:57.064Z,1.18
2022-12-20T21:20:28.813Z,1.15
2022-12-20T21:23:01.483Z,1.13
2022-12-20T21:25:33.451Z,1.15
2022-12-20T21:28:05.543Z,1.14
2022-12-20T21:30:37.341Z,1.16
2022-12-20T21:33:09.580Z,1.20
2022-12-20T21:35:41.405Z,1.23
2022-12-20T21:38:13.151Z,1.27
2022-12-20T21:40:44.957Z,1.34
2022-12-20T21:43:16.929Z,1.35
2022-12-20T21:45:52.640Z,1.36
2022-12-20T21:48:25.871Z,1.36
2022-12-20T21:51:06.762Z,1.36
2022-12-20T21:53:42.312Z,1.36
2022-12-20T21:56:15.776Z,1.33
2022-12-20T21:58:49.479Z,1.30
2022-12-20T22:01:23.383Z,1.27
2022-12-20T22:03:56.671Z,1.24
2022-12-20T22:06:29.296Z,1.21
2022-12-20T22:09:02.768Z,1.22
2022-12-20T22:11:35.994Z,1.22
2022-12-20T22:14:08.681Z,1.22
2022-12-20T22:16:41.417Z,1.21
2022-12-20T22:19:15.510Z,1.21
2022-12-20T22:21:49.788Z,1.21
2022-12-20T22:24:25.849Z,1.26
2022-12-20T22:26:57.881Z,1.28
2022-12-20T22:29:29.629Z,1.31
2022-12-20T22:32:01.445Z,1.36
2022-12-20T22:34:33.275Z,1.43
2022-12-20T22:37:05.160Z,1.48
2022-12-20T22:39:37.216Z,1.56
2022-12-20T22:42:11.303Z,1.60
2022-12-20T22:44:43.182Z,1.62
2022-12-20T22:47:15.251Z,1.61
2022-12-20T22:49:46.975Z,1.63
2022-12-20T22:52:19.146Z,1.63
2022-12-20T22:54:51.000Z,1.62
2022-12-20T22:57:22.738Z,1.60
2022-12-20T23:00:14.624Z,1.58
2022-12-20T23:02:46.682Z,1.59
2022-12-20T23:05:18.704Z,1.61
2022-12-20T23:07:50.603Z,1.61
2022-12-20T23:10:40.206Z,1.62
2022-12-20T23:13:32.229Z,1.60
2022-12-20T23:16:04.136Z,1.53
2022-12-20T23:18:36.021Z,1.52
2022-12-20T23:21:25.791Z,1.47
2022-12-20T23:23:57.595Z,1.42
2022-12-20T23:26:29.340Z,1.40
2022-12-20T23:29:01.276Z,1.38
2022-12-20T23:31:33.341Z,1.37
2022-12-20T23:34:06.963Z,1.38
2022-12-20T23:36:38.409Z,1.38
2022-12-20T23:39:11.876Z,1.36
2022-12-20T23:41:43.691Z,1.38
2022-12-20T23:44:15.568Z,1.38
2022-12-20T23:46:47.343Z,1.37
2022-12-20T23:49:19.456Z,1.37
2022-12-20T23:51:51.320Z,1.36
2022-12-20T23:54:23.539Z,1.37
2022-12-20T23:56:56.066Z,1.33
2022-12-20T23:59:28.064Z,1.28
